Time;durP1;ratioP1;P1;durP2;ratioP2;P2;SDS_P1;SDS_P2;PMS_P1;PMS_P2;Temp;Humidity;BMP_temperature;BMP_pressure;BME280_temperature;BME280_humidity;BME280_pressure;Samples;Min_cycle;Max_cycle;Signal;HPM_P1;HPM_P2
2021/10/15 00:00:30;;;;;;;6.50;5.27;;;7.20;99.90;;;;;;5072051;28;20228;-62
2021/10/15 00:03:00;;;;;;;8.03;5.10;;;7.20;99.90;;;;;;5071725;28;20673;-62
2021/10/15 00:05:27;;;;;;;8.63;5.53;;;7.10;99.90;;;;;;5071636;28;20211;-61
2021/10/15 00:07:54;;;;;;;7.53;5.10;;;7.10;99.90;;;;;;5071497;28;20700;-62
2021/10/15 00:10:21;;;;;;;8.20;5.83;;;7.00;99.90;;;;;;5071865;28;20209;-62
2021/10/15 00:12:49;;;;;;;6.77;5.57;;;7.00;99.90;;;;;;5071268;28;20208;-61
2021/10/15 00:15:16;;;;;;;7.67;5.80;;;7.10;99.90;;;;;;5071493;28;20212;-62
2021/10/15 00:17:43;;;;;;;6.07;5.17;;;7.10;99.90;;;;;;5071543;28;20212;-64
2021/10/15 00:20:11;;;;;;;8.87;5.47;;;7.10;99.90;;;;;;5071364;28;20225;-62
2021/10/15 00:22:38;;;;;;;7.03;5.20;;;7.10;99.90;;;;;;5071275;28;20201;-62
2021/10/15 00:25:06;;;;;;;7.43;5.03;;;7.10;99.90;;;;;;5070961;28;20225;-62
2021/10/15 00:27:33;;;;;;;7.63;5.83;;;7.00;99.90;;;;;;5071813;28;20205;-62
2021/10/15 00:30:01;;;;;;;6.83;5.20;;;7.00;99.90;;;;;;5071094;28;20732;-63
2021/10/15 00:32:28;;;;;;;8.57;5.60;;;6.90;99.90;;;;;;5070686;28;20212;-61
2021/10/15 00:34:54;;;;;;;7.37;6.07;;;6.90;99.90;;;;;;5110324;22;20224;-62
2021/10/15 00:37:21;;;;;;;7.20;5.60;;;6.90;99.90;;;;;;5091731;28;20207;-62
2021/10/15 00:39:48;;;;;;;6.13;5.53;;;6.80;99.90;;;;;;5091036;28;20219;-62
2021/10/15 00:42:15;;;;;;;8.20;5.40;;;6.80;99.90;;;;;;5091469;28;20699;-62
2021/10/15 00:44:41;;;;;;;8.10;5.27;;;6.70;99.90;;;;;;5091333;28;20228;-62
2021/10/15 00:47:09;;;;;;;8.03;5.13;;;6.70;99.90;;;;;;5091328;28;20208;-62
2021/10/15 00:49:36;;;;;;;7.87;5.63;;;6.70;99.90;;;;;;5091789;28;20435;-62
2021/10/15 00:52:03;;;;;;;8.43;5.97;;;6.70;99.90;;;;;;5091864;28;20340;-62
2021/10/15 00:54:30;;;;;;;7.77;5.60;;;6.70;99.90;;;;;;5092663;28;20227;-62
2021/10/15 00:56:57;;;;;;;6.90;5.17;;;6.70;99.90;;;;;;5092501;28;20211;-62
2021/10/15 00:59:23;;;;;;;5.83;5.17;;;6.60;99.90;;;;;;5092598;28;20208;-62
2021/10/15 01:01:50;;;;;;;5.83;5.23;;;6.60;99.90;;;;;;5093349;28;20633;-63
2021/10/15 01:04:19;;;;;;;7.33;5.87;;;6.50;99.90;;;;;;5093646;28;20228;-62
2021/10/15 01:06:46;;;;;;;9.00;5.33;;;6.50;99.90;;;;;;5091921;28;20579;-61
2021/10/15 01:09:12;;;;;;;8.57;5.47;;;6.50;99.90;;;;;;5092307;28;20212;-62
2021/10/15 01:11:39;;;;;;;8.00;5.87;;;6.50;99.90;;;;;;5092133;28;20226;-62
2021/10/15 01:14:08;;;;;;;7.07;5.70;;;6.50;99.90;;;;;;5091995;28;20712;-61
2021/10/15 01:16:35;;;;;;;5.80;5.00;;;6.40;99.90;;;;;;5091675;28;20676;-62
2021/10/15 01:19:03;;;;;;;7.50;5.60;;;6.40;99.90;;;;;;5091616;28;20211;-62
2021/10/15 01:21:32;;;;;;;6.63;5.40;;;6.40;99.90;;;;;;5091246;28;20627;-62
2021/10/15 01:23:59;;;;;;;5.80;5.10;;;6.40;99.90;;;;;;5091180;28;20231;-62
2021/10/15 01:26:26;;;;;;;5.73;4.93;;;6.30;99.90;;;;;;5091623;28;20228;-63
2021/10/15 01:28:54;;;;;;;11.13;5.20;;;6.30;99.90;;;;;;5091422;28;20204;-63
2021/10/15 01:31:22;;;;;;;7.83;5.40;;;6.30;99.90;;;;;;5091513;28;20620;-62
2021/10/15 01:33:49;;;;;;;7.77;5.43;;;6.30;99.90;;;;;;5091139;28;20232;-62
2021/10/15 01:36:16;;;;;;;7.17;5.17;;;6.20;99.90;;;;;;5091008;28;20676;-62
2021/10/15 01:38:44;;;;;;;9.07;4.90;;;6.10;99.90;;;;;;5091221;28;20621;-62
2021/10/15 01:41:11;;;;;;;7.23;4.80;;;5.80;99.90;;;;;;5091161;28;20231;-62
2021/10/15 01:43:38;;;;;;;6.90;4.93;;;5.70;99.90;;;;;;5093353;28;20275;-62
2021/10/15 01:46:05;;;;;;;5.90;4.70;;;5.60;99.90;;;;;;5095029;28;20205;-63
2021/10/15 01:48:32;;;;;;;7.80;5.00;;;5.70;99.90;;;;;;5094589;28;20557;-62
2021/10/15 01:50:59;;;;;;;7.77;5.23;;;5.60;99.90;;;;;;5094874;28;20203;-63
2021/10/15 01:53:26;;;;;;;6.83;5.13;;;5.60;99.90;;;;;;5094404;28;20322;-62
2021/10/15 01:55:54;;;;;;;5.87;5.27;;;5.60;99.90;;;;;;5094546;28;20227;-62
2021/10/15 01:58:21;;;;;;;8.53;5.30;;;5.60;99.90;;;;;;5094441;28;20219;-63
2021/10/15 02:00:48;;;;;;;7.37;5.00;;;5.70;99.90;;;;;;5094583;28;20224;-62
2021/10/15 02:03:15;;;;;;;6.60;5.60;;;5.60;99.90;;;;;;5094254;28;20215;-62
2021/10/15 02:05:42;;;;;;;7.00;5.57;;;5.60;99.90;;;;;;5094520;28;20200;-63
2021/10/15 02:08:09;;;;;;;9.93;5.87;;;5.60;99.90;;;;;;5094507;28;20208;-62
2021/10/15 02:10:36;;;;;;;6.60;5.50;;;5.70;99.90;;;;;;5094563;28;20211;-63
2021/10/15 02:13:04;;;;;;;8.00;5.93;;;5.80;99.90;;;;;;5094814;28;20211;-62
2021/10/15 02:15:31;;;;;;;9.23;5.70;;;5.90;99.90;;;;;;5094749;28;20201;-62
2021/10/15 02:17:58;;;;;;;9.70;5.40;;;5.90;99.90;;;;;;5094722;28;20338;-63
2021/10/15 02:20:25;;;;;;;7.33;5.13;;;5.90;99.90;;;;;;5094784;28;20208;-62
2021/10/15 02:22:52;;;;;;;6.23;5.43;;;5.80;99.90;;;;;;5094165;28;20594;-62
2021/10/15 02:25:20;;;;;;;7.40;5.33;;;5.70;99.90;;;;;;5094146;28;20226;-63
2021/10/15 02:27:47;;;;;;;7.53;5.60;;;5.70;99.90;;;;;;5094691;28;20205;-63
2021/10/15 02:30:18;;;;;;;7.00;5.70;;;5.80;99.90;;;;;;5093920;28;20208;-62
2021/10/15 02:32:46;;;;;;;7.43;5.90;;;5.90;99.90;;;;;;5094074;28;20208;-62
2021/10/15 02:35:13;;;;;;;8.57;6.00;;;5.90;99.90;;;;;;5093440;28;20228;-63
2021/10/15 02:37:40;;;;;;;6.93;5.33;;;6.00;99.90;;;;;;5094099;28;20231;-63
2021/10/15 02:40:08;;;;;;;10.70;6.63;;;6.00;99.90;;;;;;5094074;28;20208;-62
2021/10/15 02:42:36;;;;;;;10.03;5.93;;;5.90;99.90;;;;;;5094150;28;20703;-63
2021/10/15 02:45:04;;;;;;;6.13;5.53;;;5.70;99.90;;;;;;5093933;28;20227;-63
2021/10/15 02:47:32;;;;;;;6.70;5.47;;;5.70;99.90;;;;;;5093558;28;20200;-63
2021/10/15 02:49:58;;;;;;;7.83;5.33;;;5.70;99.90;;;;;;5094130;28;20216;-63
2021/10/15 02:52:25;;;;;;;9.20;6.40;;;5.70;99.90;;;;;;5094600;28;20203;-62
2021/10/15 02:54:52;;;;;;;7.70;5.70;;;5.60;99.90;;;;;;5093126;28;20231;-63
2021/10/15 02:57:19;;;;;;;7.20;5.37;;;5.60;99.90;;;;;;5093980;28;20709;-62
2021/10/15 02:59:45;;;;;;;6.13;4.90;;;5.70;99.90;;;;;;5093628;28;20558;-63
2021/10/15 03:02:12;;;;;;;6.33;5.23;;;5.70;99.90;;;;;;5093542;28;20220;-63
2021/10/15 03:04:40;;;;;;;7.33;4.67;;;5.60;99.90;;;;;;5093044;28;20638;-63
2021/10/15 03:07:07;;;;;;;7.93;5.33;;;5.40;99.90;;;;;;5093440;28;20201;-63
2021/10/15 03:09:33;;;;;;;5.90;5.13;;;5.40;99.90;;;;;;5093464;28;20249;-62
2021/10/15 03:12:00;;;;;;;7.37;5.43;;;5.50;99.90;;;;;;5093943;28;20207;-63
2021/10/15 03:14:27;;;;;;;9.07;5.63;;;5.40;99.90;;;;;;5093284;28;20232;-63
2021/10/15 03:16:53;;;;;;;8.60;5.67;;;5.40;99.90;;;;;;5093482;28;20643;-63
2021/10/15 03:19:20;;;;;;;7.93;5.60;;;5.50;99.90;;;;;;5093325;28;20208;-62
2021/10/15 03:21:48;;;;;;;8.83;6.47;;;5.60;99.90;;;;;;5093383;28;20224;-62
2021/10/15 03:24:15;;;;;;;9.00;6.97;;;5.70;99.90;;;;;;5092812;28;20703;-63
2021/10/15 03:26:42;;;;;;;8.17;6.60;;;5.70;99.90;;;;;;5093686;28;20266;-62
2021/10/15 03:29:09;;;;;;;7.23;5.60;;;5.80;99.90;;;;;;5093089;28;20211;-63
2021/10/15 03:31:35;;;;;;;8.60;5.83;;;5.80;99.90;;;;;;5093355;28;20211;-63
2021/10/15 03:34:02;;;;;;;6.93;5.47;;;5.90;99.90;;;;;;5093123;28;20228;-63
2021/10/15 03:36:29;;;;;;;7.23;5.70;;;5.90;99.90;;;;;;5093492;28;20231;-62
2021/10/15 03:38:57;;;;;;;7.00;5.70;;;5.90;99.90;;;;;;5093829;28;20212;-62
2021/10/15 03:41:24;;;;;;;7.73;6.50;;;5.90;99.90;;;;;;5093465;28;20219;-62
2021/10/15 03:43:51;;;;;;;10.33;7.23;;;5.90;99.90;;;;;;5092875;28;20227;-63
2021/10/15 03:46:18;;;;;;;7.63;6.43;;;5.90;99.90;;;;;;5092861;28;20204;-63
2021/10/15 03:48:45;;;;;;;8.67;6.43;;;5.80;99.90;;;;;;5092456;28;20243;-62
2021/10/15 03:51:12;;;;;;;7.80;6.27;;;5.80;99.90;;;;;;5092367;28;20258;-62
2021/10/15 03:53:38;;;;;;;11.73;6.30;;;5.80;99.90;;;;;;5091907;28;20224;-63
2021/10/15 03:56:07;;;;;;;8.70;6.07;;;5.80;99.90;;;;;;5092213;28;20671;-63
2021/10/15 03:58:33;;;;;;;8.17;6.00;;;5.80;99.90;;;;;;5092513;28;20211;-62
2021/10/15 04:01:00;;;;;;;9.87;6.60;;;5.80;99.90;;;;;;5092328;28;20211;-63
2021/10/15 04:03:27;;;;;;;6.87;5.67;;;5.70;99.90;;;;;;5091982;28;20710;-63
2021/10/15 04:05:53;;;;;;;6.63;5.83;;;5.80;99.90;;;;;;5091990;28;20208;-63
2021/10/15 04:08:20;;;;;;;7.10;5.87;;;5.80;99.90;;;;;;5092140;28;20204;-63
2021/10/15 04:10:47;;;;;;;7.60;5.83;;;5.80;99.90;;;;;;5092469;28;20212;-63
2021/10/15 04:13:15;;;;;;;8.53;6.70;;;5.80;99.90;;;;;;5092517;28;20219;-63
2021/10/15 04:15:41;;;;;;;7.73;6.07;;;5.80;99.90;;;;;;5092580;28;20586;-63
2021/10/15 04:18:08;;;;;;;8.13;6.37;;;5.80;99.90;;;;;;5092685;28;20212;-63
2021/10/15 04:20:35;;;;;;;7.13;5.57;;;5.80;99.90;;;;;;5092553;28;20204;-62
2021/10/15 04:23:02;;;;;;;8.10;6.37;;;5.80;99.90;;;;;;5093107;28;20228;-62
2021/10/15 04:25:29;;;;;;;7.77;5.50;;;5.80;99.90;;;;;;5092439;28;20231;-62
2021/10/15 04:27:55;;;;;;;6.93;5.70;;;5.80;99.90;;;;;;5092739;28;20200;-62
2021/10/15 04:30:23;;;;;;;7.30;5.97;;;5.80;99.90;;;;;;5092639;28;20204;-62
2021/10/15 04:32:50;;;;;;;11.37;7.03;;;5.70;99.90;;;;;;5092383;28;20204;-62
2021/10/15 04:35:17;;;;;;;9.60;6.53;;;5.70;99.90;;;;;;5092634;28;20242;-65
2021/10/15 04:37:44;;;;;;;9.97;6.67;;;5.70;99.90;;;;;;5091902;28;20200;-63
2021/10/15 04:40:10;;;;;;;7.47;6.40;;;5.70;99.90;;;;;;5092186;28;20210;-63
2021/10/15 04:42:38;;;;;;;9.07;7.07;;;5.70;99.90;;;;;;5091960;28;20288;-62
2021/10/15 04:45:05;;;;;;;9.80;7.47;;;5.80;99.90;;;;;;5091885;28;20255;-63
2021/10/15 04:47:33;;;;;;;11.30;8.00;;;5.80;99.90;;;;;;5091851;28;20208;-63
2021/10/15 04:50:00;;;;;;;9.97;7.33;;;5.80;99.90;;;;;;5091870;28;20205;-63
2021/10/15 04:52:27;;;;;;;9.40;6.53;;;5.80;99.90;;;;;;5091488;28;20203;-63
2021/10/15 04:54:54;;;;;;;9.30;6.77;;;5.80;99.90;;;;;;5091150;28;20224;-62
2021/10/15 04:57:20;;;;;;;8.43;6.30;;;5.80;99.90;;;;;;5091617;28;20200;-63
2021/10/15 04:59:47;;;;;;;9.17;7.00;;;5.80;99.90;;;;;;5091444;28;20257;-63
2021/10/15 05:02:14;;;;;;;7.93;6.63;;;5.90;99.90;;;;;;5091182;28;20706;-63
2021/10/15 05:04:42;;;;;;;7.90;6.73;;;5.90;99.90;;;;;;5091437;28;20251;-63
2021/10/15 05:07:09;;;;;;;10.43;7.00;;;5.90;99.90;;;;;;5091542;28;20208;-63
2021/10/15 05:09:36;;;;;;;12.87;7.50;;;6.00;99.90;;;;;;5091103;28;20547;-63
2021/10/15 05:12:05;;;;;;;9.10;7.23;;;6.00;99.90;;;;;;5091392;28;20245;-63
2021/10/15 05:14:33;;;;;;;11.80;7.60;;;6.00;99.90;;;;;;5091010;28;20629;-63
2021/10/15 05:17:01;;;;;;;9.80;6.70;;;6.00;99.90;;;;;;5091152;28;20211;-63
2021/10/15 05:19:28;;;;;;;10.60;7.17;;;6.00;99.90;;;;;;5095077;28;20231;-63
2021/10/15 05:21:56;;;;;;;8.87;6.83;;;6.00;99.90;;;;;;5095239;28;20223;-63
2021/10/15 05:24:23;;;;;;;10.13;6.53;;;6.00;99.90;;;;;;5096257;28;20224;-63
2021/10/15 05:26:49;;;;;;;8.20;6.40;;;6.00;99.90;;;;;;5095847;28;20223;-63
2021/10/15 05:29:16;;;;;;;9.07;7.10;;;6.00;99.90;;;;;;5095230;28;20208;-63
2021/10/15 05:31:43;;;;;;;11.03;6.90;;;6.00;99.90;;;;;;5095546;28;20668;-63
2021/10/15 05:34:10;;;;;;;9.40;6.87;;;6.00;99.90;;;;;;5095265;28;20732;-63
2021/10/15 05:36:36;;;;;;;10.70;6.80;;;6.00;99.90;;;;;;5095339;28;20211;-62
2021/10/15 05:39:05;;;;;;;8.80;6.80;;;6.00;99.90;;;;;;5095320;28;20294;-62
2021/10/15 05:41:32;;;;;;;8.57;6.43;;;6.00;99.90;;;;;;5095363;28;20201;-63
2021/10/15 05:43:59;;;;;;;10.27;7.93;;;6.00;99.90;;;;;;5094634;28;20228;-64
2021/10/15 05:46:25;;;;;;;13.07;8.23;;;6.00;99.90;;;;;;5094929;28;20206;-61
2021/10/15 05:48:52;;;;;;;15.87;7.97;;;6.10;99.90;;;;;;5095134;28;20230;-61
2021/10/15 05:51:21;;;;;;;16.07;10.47;;;6.10;99.90;;;;;;5095732;28;20208;-63
2021/10/15 05:53:50;;;;;;;16.53;10.23;;;6.20;99.90;;;;;;5095081;28;20220;-63
2021/10/15 05:59:04;;;;;;;10.20;7.27;;;6.10;99.90;;;;;;5095522;28;20258;-64
2021/10/15 06:01:33;;;;;;;19.13;14.40;;;6.10;99.90;;;;;;5095271;28;20243;-63
2021/10/15 06:04:18;;;;;;;19.87;14.47;;;6.10;99.90;;;;;;5095021;28;20319;-65
2021/10/15 06:15:01;;;;;;;407.90;243.80;;;6.70;99.90;;;;;;5093985;28;20226;-62
2021/10/15 06:17:27;;;;;;;20.57;13.80;;;6.90;99.90;;;;;;5094979;28;20208;-60
2021/10/15 06:19:54;;;;;;;14.13;8.93;;;7.00;99.90;;;;;;5096964;28;20289;-60
2021/10/15 06:22:22;;;;;;;10.10;6.80;;;7.20;99.90;;;;;;5094273;28;20577;-60
2021/10/15 06:24:49;;;;;;;9.13;6.30;;;7.30;99.90;;;;;;5093798;28;20626;-61
2021/10/15 06:27:18;;;;;;;13.40;7.27;;;7.50;99.90;;;;;;5094108;28;20215;-60
2021/10/15 06:29:45;;;;;;;12.87;7.17;;;7.70;99.90;;;;;;5093768;28;20277;-60
2021/10/15 06:32:12;;;;;;;17.30;7.40;;;8.30;99.90;;;;;;5093844;28;20232;-60
2021/10/15 06:34:39;;;;;;;18.57;6.73;;;9.10;99.90;;;;;;5094037;28;20236;-61
2021/10/15 06:37:06;;;;;;;11.57;5.87;;;9.70;99.90;;;;;;5094184;28;20611;-60
2021/10/15 06:39:32;;;;;;;8.40;5.60;;;9.80;99.90;;;;;;5093665;28;20728;-60
2021/10/15 06:41:59;;;;;;;7.77;5.53;;;9.70;99.90;;;;;;5093924;28;20208;-61
2021/10/15 06:44:27;;;;;;;8.27;5.65;;;9.50;99.90;;;;;;5085450;28;20812;-66
2021/10/15 06:46:54;;;;;;;7.70;5.03;;;9.30;99.90;;;;;;5073348;28;20205;-66
2021/10/15 06:49:21;;;;;;;10.07;5.60;;;9.20;99.90;;;;;;5073047;28;20209;-66
2021/10/15 06:51:48;;;;;;;14.77;5.30;;;9.00;99.90;;;;;;5073328;28;20205;-67
2021/10/15 06:54:15;;;;;;;8.03;5.20;;;8.90;99.90;;;;;;5072875;28;20704;-68
2021/10/15 06:56:42;;;;;;;6.07;5.13;;;9.00;99.90;;;;;;5072914;28;20212;-65
2021/10/15 06:59:08;;;;;;;6.27;5.03;;;9.10;99.90;;;;;;5073143;28;20210;-64
2021/10/15 07:01:36;;;;;;;5.97;5.30;;;9.20;99.90;;;;;;5073190;28;20212;-68
2021/10/15 07:04:03;;;;;;;7.07;5.27;;;9.40;99.90;;;;;;5074293;28;20224;-69
2021/10/15 07:06:30;;;;;;;7.97;6.10;;;9.70;99.90;;;;;;5075272;28;20262;-70
2021/10/15 07:08:58;;;;;;;7.07;5.07;;;10.00;99.90;;;;;;5072857;28;20209;-63
2021/10/15 07:11:25;;;;;;;6.17;5.30;;;10.20;99.90;;;;;;5073365;28;20251;-64
2021/10/15 07:13:52;;;;;;;6.30;5.13;;;10.50;99.90;;;;;;5072935;28;20221;-60
2021/10/15 07:16:19;;;;;;;6.17;4.70;;;10.80;99.90;;;;;;5073053;28;20611;-67
2021/10/15 07:18:47;;;;;;;6.60;4.67;;;10.80;99.90;;;;;;5073321;28;20220;-67
2021/10/15 07:21:13;;;;;;;7.30;6.07;;;10.70;99.90;;;;;;5073287;28;20217;-66
2021/10/15 07:23:40;;;;;;;7.33;5.63;;;10.50;99.90;;;;;;5072761;28;20616;-68
2021/10/15 07:26:07;;;;;;;8.17;5.50;;;10.30;99.90;;;;;;5074307;28;20208;-66
2021/10/15 07:28:33;;;;;;;8.50;5.20;;;10.20;99.90;;;;;;5073331;28;20487;-66
2021/10/15 07:31:00;;;;;;;7.93;6.10;;;10.10;99.90;;;;;;5073309;28;20262;-70
2021/10/15 07:33:27;;;;;;;10.00;5.50;;;10.00;99.90;;;;;;5072965;28;20241;-67
2021/10/15 07:35:55;;;;;;;11.10;7.00;;;10.00;99.90;;;;;;5073467;28;20205;-72
2021/10/15 07:38:22;;;;;;;14.50;8.30;;;10.00;99.90;;;;;;5072846;28;20201;-69
2021/10/15 07:40:49;;;;;;;8.90;5.87;;;10.10;99.90;;;;;;5072560;28;20204;-70
2021/10/15 07:43:16;;;;;;;7.60;4.90;;;10.20;99.90;;;;;;5071725;28;20629;-68
2021/10/15 07:45:42;;;;;;;6.43;4.30;;;10.40;99.90;;;;;;5072513;28;20235;-69
2021/10/15 07:48:09;;;;;;;5.67;5.03;;;10.50;99.90;;;;;;5072346;28;20213;-69
2021/10/15 07:50:36;;;;;;;7.13;5.87;;;10.70;99.90;;;;;;5072437;28;20213;-64
2021/10/15 07:53:04;;;;;;;6.73;4.30;;;10.80;99.90;;;;;;5072277;28;20279;-67
2021/10/15 07:55:31;;;;;;;5.10;4.00;;;11.10;99.90;;;;;;5072969;28;20635;-69
2021/10/15 07:57:57;;;;;;;4.90;3.97;;;11.30;99.90;;;;;;5072062;28;20696;-70
2021/10/15 08:00:24;;;;;;;7.80;4.13;;;11.40;99.90;;;;;;5072292;28;20660;-70
2021/10/15 08:02:53;;;;;;;10.83;5.63;;;11.60;99.90;;;;;;5072075;28;20220;-70
2021/10/15 08:05:20;;;;;;;9.27;5.33;;;11.80;99.90;;;;;;5071677;28;20224;-69
2021/10/15 08:07:46;;;;;;;11.03;5.47;;;12.00;99.90;;;;;;5071907;28;20216;-70
2021/10/15 08:10:15;;;;;;;6.67;4.20;;;12.10;99.90;;;;;;5072190;28;20217;-70
2021/10/15 08:12:43;;;;;;;8.87;4.73;;;12.20;99.90;;;;;;5072057;28;20665;-70
2021/10/15 08:15:11;;;;;;;8.53;4.33;;;12.30;99.90;;;;;;5071930;28;20251;-70
2021/10/15 08:17:38;;;;;;;6.53;4.73;;;12.40;99.90;;;;;;5072016;28;20303;-70
2021/10/15 08:20:07;;;;;;;5.83;3.77;;;12.50;99.90;;;;;;5071726;28;20288;-70
2021/10/15 08:22:34;;;;;;;6.77;4.07;;;12.50;99.90;;;;;;5071874;28;20588;-70
2021/10/15 08:25:00;;;;;;;5.37;4.20;;;12.60;99.90;;;;;;5072039;28;20229;-70
2021/10/15 08:27:28;;;;;;;4.87;3.93;;;12.70;99.90;;;;;;5072065;28;20201;-70
2021/10/15 08:29:55;;;;;;;6.10;4.20;;;12.70;99.90;;;;;;5071934;28;20672;-70
2021/10/15 08:32:22;;;;;;;4.60;3.57;;;12.80;99.90;;;;;;5071873;28;20592;-70
2021/10/15 08:34:48;;;;;;;5.13;4.20;;;12.90;99.90;;;;;;5070949;28;20229;-70
2021/10/15 08:37:15;;;;;;;5.53;3.87;;;13.20;99.90;;;;;;5071892;28;20258;-70
2021/10/15 08:39:42;;;;;;;5.40;4.00;;;13.30;99.90;;;;;;5071502;28;20585;-69
2021/10/15 08:42:10;;;;;;;6.73;5.00;;;13.30;99.90;;;;;;5072350;28;20208;-69
2021/10/15 08:44:41;;;;;;;4.50;3.60;;;13.40;99.90;;;;;;5072451;28;20274;-69
2021/10/15 08:47:08;;;;;;;6.17;3.80;;;13.50;99.90;;;;;;5072204;28;20265;-69
2021/10/15 08:49:35;;;;;;;8.17;4.13;;;13.50;99.90;;;;;;5072546;28;20212;-69
2021/10/15 08:52:02;;;;;;;4.80;3.40;;;13.70;99.90;;;;;;5071900;28;20208;-69
2021/10/15 08:54:31;;;;;;;4.20;3.20;;;13.70;99.90;;;;;;5071960;28;20221;-66
2021/10/15 08:56:58;;;;;;;6.90;5.23;;;13.50;99.90;;;;;;5071640;28;20699;-64
2021/10/15 08:59:38;;;;;;;5.90;3.40;;;13.40;99.90;;;;;;5071583;28;20212;-65
2021/10/15 09:02:13;;;;;;;3.90;3.17;;;13.50;99.90;;;;;;5071459;28;20208;-65
2021/10/15 09:04:46;;;;;;;6.53;3.47;;;13.90;99.90;;;;;;5071037;28;20240;-65
2021/10/15 09:07:14;;;;;;;6.20;3.00;;;14.00;99.90;;;;;;5071320;28;20204;-64
2021/10/15 09:09:42;;;;;;;5.47;3.30;;;14.10;99.90;;;;;;5071065;28;20308;-66
2021/10/15 09:12:11;;;;;;;4.90;3.00;;;14.10;99.90;;;;;;5071223;28;20208;-64
2021/10/15 09:14:39;;;;;;;5.57;3.20;;;14.30;99.90;;;;;;5072012;28;20221;-65
2021/10/15 09:17:09;;;;;;;4.67;3.40;;;14.40;99.90;;;;;;5071506;28;20209;-65
2021/10/15 09:19:37;;;;;;;7.47;3.80;;;14.50;99.90;;;;;;5071350;28;20216;-64
2021/10/15 09:22:13;;;;;;;5.13;3.50;;;14.60;99.90;;;;;;5071535;28;20209;-64
2021/10/15 09:24:42;;;;;;;4.77;3.17;;;14.60;99.90;;;;;;5071384;28;20232;-64
2021/10/15 09:27:34;;;;;;;5.27;3.00;;;14.60;99.90;;;;;;5072098;28;20391;-65
2021/10/15 09:30:06;;;;;;;4.07;3.53;;;14.60;99.90;;;;;;5063537;28;20244;-64
2021/10/15 09:32:35;;;;;;;3.90;3.30;;;14.50;99.90;;;;;;5072884;28;20231;-64
2021/10/15 09:35:02;;;;;;;4.43;3.23;;;14.60;99.90;;;;;;5071042;28;20240;-64
2021/10/15 09:37:31;;;;;;;8.20;3.10;;;14.80;99.90;;;;;;5071811;28;20205;-64
2021/10/15 09:40:05;;;;;;;5.47;3.20;;;14.90;99.90;;;;;;5071297;28;20665;-65
2021/10/15 09:42:33;;;;;;;4.33;3.50;;;15.00;99.90;;;;;;5071246;28;20814;-64
2021/10/15 09:45:12;;;;;;;6.07;3.30;;;14.90;99.90;;;;;;5070486;28;20511;-64
2021/10/15 09:47:39;;;;;;;6.57;3.33;;;14.90;99.90;;;;;;5070588;28;20216;-64
2021/10/15 09:50:08;;;;;;;4.97;3.70;;;14.90;99.90;;;;;;5070803;28;20208;-64
2021/10/15 09:52:38;;;;;;;3.03;2.67;;;15.00;99.90;;;;;;5070997;28;20213;-64
2021/10/15 09:55:17;;;;;;;5.30;2.87;;;15.00;99.90;;;;;;5070445;28;20225;-64
2021/10/15 09:57:45;;;;;;;3.07;2.40;;;15.00;99.90;;;;;;5070318;28;20209;-64
2021/10/15 10:00:16;;;;;;;3.33;2.20;;;15.00;99.90;;;;;;5070623;28;20213;-64
2021/10/15 10:02:43;;;;;;;3.60;2.30;;;15.20;99.90;;;;;;5070871;28;20206;-64
2021/10/15 10:05:13;;;;;;;6.13;3.60;;;15.20;99.90;;;;;;5073352;28;20236;-63
2021/10/15 10:07:41;;;;;;;4.17;2.67;;;15.30;99.90;;;;;;5074585;28;20219;-64
2021/10/15 10:10:10;;;;;;;3.37;2.50;;;15.40;99.90;;;;;;5074959;28;20209;-65
2021/10/15 10:12:38;;;;;;;4.67;2.97;;;15.60;99.90;;;;;;5074104;28;20561;-65
2021/10/15 10:15:08;;;;;;;4.90;2.93;;;15.70;99.90;;;;;;5074277;28;20227;-64
2021/10/15 10:17:42;;;;;;;4.00;2.63;;;15.70;99.90;;;;;;5074481;28;20211;-65
2021/10/15 10:20:15;;;;;;;5.83;3.50;;;15.70;99.90;;;;;;5074282;28;20227;-64
2021/10/15 10:22:48;;;;;;;4.83;3.23;;;15.70;99.90;;;;;;5073912;28;20750;-64
2021/10/15 10:25:24;;;;;;;4.60;3.30;;;15.70;99.90;;;;;;5073548;28;20594;-64
2021/10/15 10:27:53;;;;;;;7.20;4.40;;;15.50;99.90;;;;;;5073393;28;20688;-64
2021/10/15 10:30:36;;;;;;;5.97;3.80;;;15.40;99.90;;;;;;5073755;28;20496;-64
2021/10/15 10:33:04;;;;;;;5.90;4.10;;;15.60;99.90;;;;;;5073688;28;20240;-64
2021/10/15 10:35:31;;;;;;;4.70;3.80;;;15.80;99.90;;;;;;5073450;28;20209;-64
2021/10/15 10:38:26;;;;;;;4.00;3.50;;;16.00;99.90;;;;;;5073799;28;20672;-64
2021/10/15 10:41:13;;;;;;;5.23;3.97;;;16.10;99.90;;;;;;5052144;28;20209;-64
2021/10/15 10:44:11;;;;;;;8.57;4.40;;;16.10;99.90;;;;;;5074293;28;20236;-64
2021/10/15 10:46:38;;;;;;;7.80;4.70;;;16.00;99.90;;;;;;5074540;28;20239;-65
2021/10/15 10:49:20;;;;;;;6.23;4.37;;;16.20;99.90;;;;;;5073667;28;20215;-65
2021/10/15 10:52:15;;;;;;;6.10;4.13;;;16.40;99.90;;;;;;5073546;28;20276;-63
2021/10/15 10:54:44;;;;;;;6.47;4.07;;;16.60;99.90;;;;;;5073172;28;20216;-63
2021/10/15 10:57:17;;;;;;;4.10;3.60;;;16.60;99.90;;;;;;5073236;28;20587;-65
2021/10/15 10:59:44;;;;;;;6.00;4.17;;;16.70;99.90;;;;;;5072935;28;20209;-64
2021/10/15 11:02:17;;;;;;;5.70;4.37;;;16.80;99.90;;;;;;5073003;28;20205;-64
2021/10/15 11:04:57;;;;;;;7.77;4.27;;;16.90;99.90;;;;;;5072645;28;20323;-65
2021/10/15 11:07:29;;;;;;;5.27;3.97;;;17.10;99.90;;;;;;5073179;28;20584;-64
2021/10/15 11:10:01;;;;;;;7.93;3.70;;;17.10;99.90;;;;;;5072969;28;20208;-65
2021/10/15 11:13:04;;;;;;;5.60;3.63;;;17.10;99.90;;;;;;5073755;28;20212;-64
2021/10/15 11:15:33;;;;;;;5.43;4.10;;;17.00;99.90;;;;;;5072155;28;20205;-64
2021/10/15 11:18:00;;;;;;;6.30;3.87;;;17.10;99.90;;;;;;5072720;28;20231;-65
2021/10/15 11:20:30;;;;;;;6.40;3.50;;;17.20;99.90;;;;;;5072689;28;20591;-64
2021/10/15 11:22:59;;;;;;;4.47;3.90;;;17.30;99.90;;;;;;5072675;28;20213;-64
2021/10/15 11:25:29;;;;;;;7.23;4.30;;;17.10;99.90;;;;;;5072476;28;20228;-64
2021/10/15 11:27:57;;;;;;;5.13;3.63;;;16.90;99.90;;;;;;5073445;28;20573;-64
2021/10/15 11:30:26;;;;;;;6.63;4.33;;;16.90;99.90;;;;;;5072863;28;20295;-64
2021/10/15 11:32:53;;;;;;;7.20;4.00;;;17.00;99.90;;;;;;5072574;28;20266;-64
2021/10/15 11:35:23;;;;;;;7.80;4.27;;;16.90;99.90;;;;;;5072432;28;20236;-64
2021/10/15 11:38:04;;;;;;;6.13;3.40;;;16.90;99.90;;;;;;5072317;28;20699;-64
2021/10/15 11:40:34;;;;;;;5.53;3.23;;;17.00;99.90;;;;;;5072535;28;20823;-63
2021/10/15 11:43:20;;;;;;;5.15;3.50;;;17.10;99.90;;;;;;5072367;28;20296;-65
2021/10/15 11:45:48;;;;;;;4.13;3.50;;;17.10;99.90;;;;;;5071648;28;20775;-65
2021/10/15 11:48:17;;;;;;;4.93;3.33;;;17.10;99.90;;;;;;5072098;28;20684;-65
2021/10/15 11:50:50;;;;;;;6.27;3.03;;;17.00;99.90;;;;;;5072539;28;20208;-65
2021/10/15 11:53:22;;;;;;;5.88;3.30;;;16.90;99.90;;;;;;5072746;28;20209;-64
2021/10/15 11:55:50;;;;;;;8.48;3.40;;;16.90;99.90;;;;;;5072792;28;20271;-64
2021/10/15 11:58:28;;;;;;;5.97;3.53;;;16.90;99.90;;;;;;5071860;28;20326;-63
2021/10/15 12:01:09;;;;;;;4.77;3.60;;;16.90;99.90;;;;;;5072325;28;20215;-64
2021/10/15 12:03:38;;;;;;;4.33;3.40;;;16.80;99.90;;;;;;5072149;28;20225;-64
2021/10/15 12:06:30;;;;;;;5.53;3.53;;;16.90;99.90;;;;;;5072097;28;20655;-64
2021/10/15 12:09:01;;;;;;;4.93;2.90;;;16.90;99.90;;;;;;5071828;28;20250;-64
2021/10/15 12:11:45;;;;;;;5.33;3.30;;;17.20;99.90;;;;;;5072140;28;20454;-62
2021/10/15 12:14:14;;;;;;;5.43;3.70;;;17.30;99.90;;;;;;5080455;28;20224;-67
2021/10/15 12:16:53;;;;;;;4.10;3.13;;;17.30;99.90;;;;;;5091939;28;20253;-64
2021/10/15 12:19:23;;;;;;;5.23;3.23;;;17.20;99.90;;;;;;5091613;28;20680;-63
2021/10/15 12:21:51;;;;;;;4.43;3.23;;;17.00;99.90;;;;;;5091762;28;20207;-66
2021/10/15 12:24:28;;;;;;;5.10;3.37;;;17.00;99.90;;;;;;5091706;28;20228;-67
2021/10/15 12:27:04;;;;;;;5.90;3.50;;;17.10;99.90;;;;;;5091954;28;20204;-62
2021/10/15 12:29:33;;;;;;;5.25;3.35;;;17.30;99.90;;;;;;5091556;28;20208;-62
2021/10/15 12:32:23;;;;;;;5.15;3.28;;;17.50;99.90;;;;;;5092022;28;20231;-65
2021/10/15 12:34:51;;;;;;;5.00;3.50;;;17.70;99.90;;;;;;5092909;28;20318;-63
2021/10/15 12:37:27;;;;;;;6.43;3.25;;;17.80;99.90;;;;;;5091827;28;20204;-64
2021/10/15 12:40:10;;;;;;;6.18;3.63;;;18.10;99.90;;;;;;5091859;28;20215;-64
2021/10/15 12:42:36;;;;;;;6.88;3.67;;;18.20;99.90;;;;;;5091290;28;20208;-63
2021/10/15 12:45:08;;;;;;;4.35;3.17;;;18.40;99.90;;;;;;5091664;28;20259;-69
2021/10/15 12:47:34;;;;;;;5.57;3.22;;;18.60;99.90;;;;;;5085762;28;20244;-65
2021/10/15 12:50:03;;;;;;;3.70;3.10;;;18.80;99.90;;;;;;5071363;28;20691;-68
2021/10/15 12:52:31;;;;;;;4.40;2.83;;;18.80;99.90;;;;;;5071401;28;20211;-63
2021/10/15 12:54:58;;;;;;;3.67;3.30;;;18.70;99.90;;;;;;5070642;28;20232;-66
2021/10/15 12:57:35;;;;;;;3.75;3.15;;;18.70;99.90;;;;;;5086052;28;20299;-64
2021/10/15 13:00:06;;;;;;;4.85;2.95;;;18.80;99.90;;;;;;5091430;28;20208;-68
2021/10/15 13:02:33;;;;;;;6.15;3.40;;;18.90;99.90;;;;;;5091166;28;20207;-65
2021/10/15 13:05:00;;;;;;;6.03;3.00;;;19.10;99.90;;;;;;5091093;28;20220;-69
2021/10/15 13:07:28;;;;;;;3.85;2.88;;;19.20;99.90;;;;;;5091528;28;20219;-66
2021/10/15 13:09:55;;;;;;;5.82;2.58;;;19.20;99.90;;;;;;5091520;28;20211;-66